Time;durP1;ratioP1;P1;durP2;ratioP2;P2;SDS_P1;SDS_P2;PMS_P1;PMS_P2;Temp;Humidity;BMP_temperature;BMP_pressure;BME280_temperature;BME280_humidity;BME280_pressure;Samples;Min_cycle;Max_cycle;Signal;HPM_P1;HPM_P2
2024/01/08 00:00:00;;;;;;;262.20;245.30;;;0.00;99.90;;;;;;4985836;28;20129;-83
2024/01/08 00:02:26;;;;;;;263.90;246.38;;;-0.80;99.90;;;;;;4984604;28;20046;-82
2024/01/08 00:04:52;;;;;;;141.55;132.82;;;-0.80;99.90;;;;;;5036997;28;20479;-83
2024/01/08 00:07:17;;;;;;;158.23;148.52;;;-0.10;99.90;;;;;;5018999;28;20500;-83
2024/01/08 00:09:43;;;;;;;155.20;145.77;;;-0.90;99.90;;;;;;4994050;28;20057;-83
2024/01/08 00:12:09;;;;;;;156.27;146.63;;;-0.20;99.90;;;;;;4987012;28;20481;-82
2024/01/08 00:14:34;;;;;;;304.10;283.48;;;-1.20;99.90;;;;;;4987915;28;20042;-82
2024/01/08 00:17:00;;;;;;;223.15;209.88;;;-1.00;99.90;;;;;;5035825;28;20818;-82
2024/01/08 00:19:26;;;;;;;238.30;222.95;;;-0.80;99.90;;;;;;5002669;28;20053;-82
2024/01/08 00:21:51;;;;;;;143.43;134.43;;;-0.60;99.90;;;;;;5002961;28;20054;-82
2024/01/08 00:24:17;;;;;;;348.50;324.55;;;-1.00;99.90;;;;;;5002501;28;20048;-83
2024/01/08 00:26:42;;;;;;;290.30;271.38;;;-1.40;99.90;;;;;;5003178;28;20056;-82
2024/01/08 00:29:08;;;;;;;409.45;380.52;;;-0.80;99.90;;;;;;4994821;28;20614;-82
2024/01/08 00:31:34;;;;;;;354.65;330.50;;;-1.70;99.90;;;;;;5032201;28;20077;-82
2024/01/08 00:33:59;;;;;;;210.50;197.85;;;-1.50;99.90;;;;;;5037288;28;20042;-82
2024/01/08 00:36:25;;;;;;;223.43;210.00;;;-0.90;99.90;;;;;;5009312;28;20394;-83
2024/01/08 00:38:51;;;;;;;373.98;348.85;;;-2.90;99.90;;;;;;5028046;28;20053;-83
2024/01/08 00:41:17;;;;;;;382.73;356.50;;;-1.80;99.90;;;;;;5000357;28;20081;-83
2024/01/08 00:43:42;;;;;;;258.38;242.73;;;-2.20;99.90;;;;;;4999931;28;20046;-83
2024/01/08 00:46:08;;;;;;;430.88;400.02;;;-1.50;99.90;;;;;;5018659;28;20516;-83
2024/01/08 00:48:34;;;;;;;524.15;485.20;;;-1.30;99.90;;;;;;4988996;28;20187;-84
2024/01/08 00:50:59;;;;;;;513.55;475.00;;;-1.10;99.90;;;;;;4968218;28;20049;-84
2024/01/08 00:53:25;;;;;;;414.00;384.98;;;-0.90;99.90;;;;;;4982932;28;20129;-83
2024/01/08 00:55:51;;;;;;;339.42;317.38;;;-1.90;99.90;;;;;;4984706;28;20047;-83
2024/01/08 00:58:16;;;;;;;286.40;268.35;;;-1.70;99.90;;;;;;4966820;28;20050;-84
2024/01/08 01:00:42;;;;;;;298.52;279.42;;;-1.40;99.90;;;;;;4983692;28;20119;-84
2024/01/08 01:03:08;;;;;;;338.20;316.35;;;-2.30;99.90;;;;;;4968186;28;20054;-83
2024/01/08 01:05:33;;;;;;;455.40;422.00;;;-1.60;99.90;;;;;;5036568;28;20046;-83
2024/01/08 01:07:59;;;;;;;563.72;520.65;;;-1.10;99.90;;;;;;5018678;28;20049;-84
2024/01/08 01:10:25;;;;;;;537.90;497.63;;;-1.50;99.90;;;;;;5018276;28;20081;-84
2024/01/08 01:12:51;;;;;;;425.55;395.75;;;-1.80;99.90;;;;;;5000532;28;20235;-84
2024/01/08 01:15:16;;;;;;;403.55;375.90;;;-2.10;99.90;;;;;;5018588;28;20128;-84
2024/01/08 01:17:42;;;;;;;605.30;558.67;;;-2.30;99.90;;;;;;5003110;28;20048;-84
2024/01/08 01:20:08;;;;;;;572.30;528.80;;;-1.30;99.90;;;;;;5002664;28;20054;-84
2024/01/08 01:22:34;;;;;;;626.53;577.55;;;-2.30;99.90;;;;;;5018349;28;20529;-84
2024/01/08 01:25:00;;;;;;;529.75;489.83;;;-1.00;99.90;;;;;;4995048;28;20131;-83
2024/01/08 01:27:25;;;;;;;529.47;490.33;;;-0.90;99.90;;;;;;4982993;28;20449;-83
2024/01/08 01:29:51;;;;;;;392.95;367.00;;;-1.40;99.90;;;;;;4984222;28;20494;-83
2024/01/08 01:32:16;;;;;;;415.73;387.80;;;-1.00;99.90;;;;;;5000434;28;20100;-83
2024/01/08 01:34:42;;;;;;;571.50;528.85;;;-0.80;99.90;;;;;;4983194;28;20498;-84
2024/01/08 01:37:08;;;;;;;376.10;351.70;;;-1.20;99.90;;;;;;4983650;28;20046;-83
2024/01/08 01:39:33;;;;;;;474.35;440.92;;;-1.20;99.90;;;;;;5009858;28;20133;-83
2024/01/08 01:41:59;;;;;;;466.02;433.60;;;-1.00;99.90;;;;;;5002026;28;20170;-83
2024/01/08 01:44:25;;;;;;;404.15;377.60;;;-0.70;99.90;;;;;;5009440;28;20046;-83
2024/01/08 01:46:53;;;;;;;343.65;321.75;;;-1.90;99.90;;;;;;4967169;28;20494;-83
2024/01/08 01:49:21;;;;;;;530.13;491.02;;;-0.80;99.90;;;;;;4966904;28;20256;-83
2024/01/08 01:51:49;;;;;;;523.28;485.52;;;-1.10;99.90;;;;;;4977684;28;20049;-83
2024/01/08 01:54:17;;;;;;;305.55;286.85;;;-1.30;99.90;;;;;;5000033;28;20046;-83
2024/01/08 01:56:48;;;;;;;574.55;531.13;;;-0.70;99.90;;;;;;4990060;28;20038;-83
2024/01/08 01:59:16;;;;;;;461.83;429.95;;;-1.40;99.90;;;;;;4971097;28;20461;-83
2024/01/08 02:01:44;;;;;;;368.02;344.80;;;-1.80;99.90;;;;;;4981658;28;20045;-83
2024/01/08 02:04:11;;;;;;;323.92;303.70;;;-0.80;99.90;;;;;;4987740;28;20107;-83
2024/01/08 02:06:39;;;;;;;513.03;476.38;;;-0.90;99.90;;;;;;4987976;28;20073;-83
2024/01/08 02:09:06;;;;;;;372.08;348.50;;;-0.80;99.90;;;;;;5030237;27;20049;-84
2024/01/08 02:11:32;;;;;;;545.15;505.48;;;-1.30;99.90;;;;;;4969450;28;20386;-84
2024/01/08 02:13:58;;;;;;;416.02;388.38;;;-1.70;99.90;;;;;;5020569;28;20050;-84
2024/01/08 02:16:24;;;;;;;359.92;337.05;;;-0.70;99.90;;;;;;4970344;28;20351;-83
2024/01/08 02:18:51;;;;;;;377.73;353.45;;;-1.70;99.90;;;;;;5003362;28;20038;-84
2024/01/08 02:21:17;;;;;;;475.48;442.33;;;-1.40;99.90;;;;;;4999384;28;20042;-84
2024/01/08 02:23:43;;;;;;;372.02;348.52;;;-1.20;99.90;;;;;;5026662;28;20088;-83
2024/01/08 02:26:10;;;;;;;353.80;331.50;;;-1.40;99.90;;;;;;4976368;28;20710;-84
2024/01/08 02:28:36;;;;;;;496.70;461.85;;;-1.10;99.90;;;;;;5038848;28;20056;-84
2024/01/08 02:31:02;;;;;;;495.35;460.73;;;-0.60;99.90;;;;;;5034562;28;20038;-84
2024/01/08 02:33:28;;;;;;;394.42;369.45;;;-1.50;99.90;;;;;;4986005;28;20439;-84
2024/01/08 02:35:54;;;;;;;400.77;374.90;;;-0.70;99.90;;;;;;5003486;28;20042;-84
2024/01/08 02:38:20;;;;;;;413.73;386.92;;;-1.40;99.90;;;;;;5000984;28;20076;-84
2024/01/08 02:40:46;;;;;;;506.90;471.70;;;-0.30;99.90;;;;;;5015087;28;20050;-84
2024/01/08 02:43:11;;;;;;;395.08;369.88;;;-1.40;99.90;;;;;;5009519;28;20050;-84
2024/01/08 02:45:37;;;;;;;399.48;373.67;;;-0.20;99.90;;;;;;5024460;28;20559;-84
2024/01/08 02:48:03;;;;;;;393.92;368.95;;;-0.30;99.90;;;;;;4991988;28;20046;-84
2024/01/08 02:50:28;;;;;;;487.92;454.23;;;-1.30;99.90;;;;;;5016925;28;20503;-84
2024/01/08 02:52:54;;;;;;;354.67;332.65;;;-1.30;99.90;;;;;;5036734;28;20069;-84
2024/01/08 02:55:20;;;;;;;287.77;270.23;;;-0.60;99.90;;;;;;5037335;28;20077;-84
2024/01/08 02:57:45;;;;;;;235.95;221.90;;;-1.00;99.90;;;;;;4988629;28;20103;-84
2024/01/08 03:00:12;;;;;;;284.38;266.83;;;-0.80;99.90;;;;;;5004041;28;20400;-84
2024/01/08 03:02:38;;;;;;;248.32;233.25;;;-1.20;99.90;;;;;;4976147;28;20061;-84
2024/01/08 03:05:04;;;;;;;254.23;238.73;;;-1.20;99.90;;;;;;5050493;28;20134;-84
2024/01/08 03:07:30;;;;;;;222.35;208.98;;;-1.10;99.90;;;;;;4981748;28;20050;-84
2024/01/08 03:09:58;;;;;;;290.85;273.30;;;-1.10;99.90;;;;;;5002726;28;20046;-84
2024/01/08 03:12:24;;;;;;;215.63;202.43;;;-1.10;99.90;;;;;;5002067;28;20056;-84
2024/01/08 03:14:50;;;;;;;203.30;191.18;;;-1.10;99.90;;;;;;4973042;28;20438;-84
2024/01/08 03:17:16;;;;;;;243.82;229.45;;;-0.80;99.90;;;;;;4985556;28;20045;-83
2024/01/08 03:19:41;;;;;;;255.02;239.65;;;-1.10;99.90;;;;;;5020959;28;20405;-84
2024/01/08 03:22:07;;;;;;;227.07;212.93;;;-0.20;99.90;;;;;;5020753;28;20552;-84
2024/01/08 03:24:34;;;;;;;251.98;236.63;;;-1.20;99.90;;;;;;5003729;28;20086;-84
2024/01/08 03:27:00;;;;;;;276.27;259.60;;;-1.10;99.90;;;;;;4987996;28;20046;-85
2024/01/08 03:29:26;;;;;;;278.77;262.02;;;-1.00;99.90;;;;;;4987240;28;20044;-84
2024/01/08 03:31:51;;;;;;;290.67;273.25;;;-0.50;99.90;;;;;;5015908;28;20046;-84
2024/01/08 03:34:17;;;;;;;333.80;313.98;;;0.00;99.90;;;;;;5017732;28;20049;-84
2024/01/08 03:36:45;;;;;;;276.05;259.52;;;-0.60;99.90;;;;;;5033736;28;20038;-84
2024/01/08 03:39:12;;;;;;;296.52;278.40;;;-1.00;99.90;;;;;;4970807;28;20065;-84
2024/01/08 03:41:39;;;;;;;271.90;255.07;;;-0.60;99.90;;;;;;4984915;28;20427;-84
2024/01/08 03:44:06;;;;;;;325.45;305.13;;;-1.10;99.90;;;;;;5002468;28;20045;-83
2024/01/08 03:46:32;;;;;;;291.65;273.92;;;-0.20;99.90;;;;;;4985216;28;20046;-84
2024/01/08 03:48:57;;;;;;;300.08;282.00;;;0.10;99.90;;;;;;5017682;28;20382;-84
2024/01/08 03:51:23;;;;;;;324.63;304.70;;;-0.90;99.90;;;;;;5018312;28;20046;-84
2024/01/08 03:53:49;;;;;;;241.57;227.27;;;-1.20;99.90;;;;;;4984723;28;20059;-84
2024/01/08 03:56:15;;;;;;;390.58;365.33;;;0.00;99.90;;;;;;4985369;28;20050;-84
2024/01/08 03:58:40;;;;;;;272.15;255.75;;;-1.10;99.90;;;;;;4965879;28;20120;-84
2024/01/08 04:01:06;;;;;;;208.65;195.63;;;0.00;99.90;;;;;;4994406;28;20047;-84
2024/01/08 04:03:32;;;;;;;215.65;202.75;;;-0.60;99.90;;;;;;5001130;28;20039;-85
2024/01/08 04:05:57;;;;;;;213.05;200.48;;;0.00;99.90;;;;;;5002143;28;20059;-84
2024/01/08 04:08:23;;;;;;;212.18;199.38;;;-1.00;99.90;;;;;;5000927;28;20436;-84
2024/01/08 04:10:49;;;;;;;201.85;189.68;;;-0.30;99.90;;;;;;5000917;28;20047;-84
2024/01/08 04:13:14;;;;;;;274.98;258.33;;;0.00;99.90;;;;;;5001609;28;20046;-84
2024/01/08 04:15:40;;;;;;;205.95;193.50;;;-1.10;99.90;;;;;;5018180;28;20050;-84
2024/01/08 04:18:07;;;;;;;262.15;246.63;;;-1.20;99.90;;;;;;4984590;28;20038;-83
2024/01/08 04:20:32;;;;;;;267.85;251.82;;;-0.20;99.90;;;;;;4969255;28;20498;-84
2024/01/08 04:22:58;;;;;;;189.52;178.05;;;0.10;99.90;;;;;;5016968;28;20089;-84
2024/01/08 04:25:24;;;;;;;151.55;142.35;;;-0.30;99.90;;;;;;5002154;28;20050;-84
2024/01/08 04:27:49;;;;;;;138.32;129.65;;;-0.40;99.90;;;;;;4974491;28;20091;-84
2024/01/08 04:30:15;;;;;;;133.20;125.07;;;-0.30;99.90;;;;;;5033591;28;20140;-84
2024/01/08 04:32:41;;;;;;;206.43;194.20;;;-1.30;99.90;;;;;;4984621;28;20044;-84
2024/01/08 04:35:07;;;;;;;114.25;106.95;;;-0.20;99.90;;;;;;5001047;28;20178;-84
2024/01/08 04:37:33;;;;;;;169.52;159.55;;;-1.40;99.90;;;;;;4983243;28;20099;-84
2024/01/08 04:39:59;;;;;;;146.60;137.75;;;-1.10;99.90;;;;;;4984862;28;20459;-84
2024/01/08 04:42:25;;;;;;;149.88;140.90;;;-0.70;99.90;;;;;;5009526;28;20045;-83
2024/01/08 04:44:50;;;;;;;134.48;126.53;;;-1.00;99.90;;;;;;5002510;28;20034;-84
2024/01/08 04:47:16;;;;;;;146.02;137.18;;;-0.40;99.90;;;;;;5027549;28;20104;-84
2024/01/08 04:49:42;;;;;;;100.55;94.40;;;-1.40;99.90;;;;;;5003352;28;20103;-83
2024/01/08 04:52:07;;;;;;;110.97;104.50;;;-0.80;99.90;;;;;;5035509;27;20045;-84
2024/01/08 04:54:33;;;;;;;212.27;198.55;;;-0.80;99.90;;;;;;5003174;28;20472;-83
2024/01/08 04:56:59;;;;;;;110.03;103.18;;;-0.30;99.90;;;;;;4987430;28;20045;-84
2024/01/08 04:59:25;;;;;;;133.27;125.32;;;-1.30;99.90;;;;;;5035382;28;20107;-84
2024/01/08 05:01:51;;;;;;;111.32;104.43;;;-1.20;99.90;;;;;;5003873;28;20057;-84
2024/01/08 05:04:17;;;;;;;130.95;123.22;;;-2.10;99.90;;;;;;4981239;28;20038;-83
2024/01/08 05:06:44;;;;;;;211.63;197.90;;;-0.90;99.90;;;;;;4982329;28;20057;-83
2024/01/08 05:09:10;;;;;;;225.55;211.27;;;-2.20;99.90;;;;;;4990970;28;20050;-83
2024/01/08 05:11:36;;;;;;;223.15;208.95;;;-2.30;99.90;;;;;;4997272;28;20482;-84
2024/01/08 05:14:04;;;;;;;264.65;247.20;;;-2.30;99.90;;;;;;4985259;28;20046;-83
2024/01/08 05:16:30;;;;;;;155.30;146.00;;;-1.10;99.90;;;;;;4983703;28;20130;-83
2024/01/08 05:18:56;;;;;;;173.88;163.07;;;-2.40;99.90;;;;;;4967990;28;20129;-83
2024/01/08 05:21:22;;;;;;;345.35;321.75;;;-2.40;99.90;;;;;;4971139;28;20057;-84
2024/01/08 05:23:48;;;;;;;406.80;377.85;;;-2.50;99.90;;;;;;4995131;28;20161;-84
2024/01/08 05:26:14;;;;;;;230.70;216.15;;;-1.60;99.90;;;;;;4977160;28;20549;-83
2024/01/08 05:28:39;;;;;;;355.52;331.40;;;-2.40;99.90;;;;;;4987097;28;20046;-83
2024/01/08 05:31:05;;;;;;;249.20;234.18;;;-1.60;99.90;;;;;;5019219;28;20054;-84
2024/01/08 05:33:31;;;;;;;472.08;437.42;;;-2.40;99.90;;;;;;5018617;28;20042;-85
2024/01/08 05:36:10;;;;;;;552.85;510.95;;;-2.40;99.90;;;;;;5004893;28;20098;-84
2024/01/08 05:38:36;;;;;;;507.98;470.67;;;-1.60;99.90;;;;;;4988389;28;20171;-84
2024/01/08 05:41:02;;;;;;;553.38;511.55;;;-1.40;99.90;;;;;;4985928;28;20475;-83
2024/01/08 05:43:28;;;;;;;486.13;450.35;;;-2.40;99.90;;;;;;4989462;28;20092;-84
2024/01/08 05:45:54;;;;;;;398.00;371.05;;;-1.80;99.90;;;;;;5002923;28;20107;-84
2024/01/08 05:48:20;;;;;;;577.03;533.00;;;-1.30;99.90;;;;;;4987762;28;20039;-83
2024/01/08 05:50:47;;;;;;;468.73;435.83;;;-1.70;99.90;;;;;;4976792;28;20154;-84
2024/01/08 05:53:13;;;;;;;458.17;426.30;;;-1.50;99.90;;;;;;5002026;28;20046;-83
2024/01/08 05:55:38;;;;;;;577.58;534.00;;;-2.60;99.90;;;;;;4991095;28;20049;-84
2024/01/08 05:58:04;;;;;;;580.10;536.35;;;-1.50;99.90;;;;;;4998345;28;20046;-84
2024/01/08 06:00:30;;;;;;;696.55;639.85;;;-2.40;99.90;;;;;;5016551;28;20383;-84
2024/01/08 06:02:56;;;;;;;737.45;676.50;;;-2.60;99.90;;;;;;4966760;28;20461;-84
2024/01/08 06:05:22;;;;;;;659.33;607.08;;;-2.00;99.90;;;;;;5016653;28;20339;-84
2024/01/08 06:07:48;;;;;;;786.08;718.30;;;-2.20;99.90;;;;;;4972138;28;20398;-84
2024/01/08 06:10:15;;;;;;;572.75;530.72;;;-2.60;99.90;;;;;;4977216;28;20057;-84
2024/01/08 06:12:40;;;;;;;692.50;637.38;;;-2.10;99.90;;;;;;4967791;28;20042;-84
2024/01/08 06:15:06;;;;;;;727.70;668.45;;;-2.30;99.90;;;;;;4984087;28;20042;-84
2024/01/08 06:17:32;;;;;;;730.20;670.80;;;-2.50;99.90;;;;;;4967236;28;20383;-84
2024/01/08 06:19:58;;;;;;;729.70;671.25;;;-2.50;99.90;;;;;;4980641;28;20157;-84
2024/01/08 06:22:23;;;;;;;811.70;742.08;;;-2.00;99.90;;;;;;5027594;28;20188;-85
2024/01/08 06:24:49;;;;;;;778.45;713.45;;;-0.90;99.90;;;;;;4999932;28;20496;-85
2024/01/08 06:27:15;;;;;;;761.38;697.42;;;-2.30;99.90;;;;;;4999314;28;20035;-85
2024/01/08 06:29:41;;;;;;;764.00;702.03;;;-0.80;99.90;;;;;;4983031;28;20055;-85
2024/01/08 06:32:07;;;;;;;651.83;602.60;;;-1.00;99.90;;;;;;4971273;28;20069;-85
2024/01/08 06:34:33;;;;;;;611.75;566.35;;;-2.10;99.90;;;;;;5018154;28;20111;-85
2024/01/08 06:36:58;;;;;;;830.58;758.75;;;-1.10;99.90;;;;;;5017781;28;20042;-85
2024/01/08 06:39:26;;;;;;;838.30;764.38;;;-2.00;99.90;;;;;;5031147;28;20042;-85
2024/01/08 06:41:52;;;;;;;635.33;588.03;;;-1.90;99.90;;;;;;4967161;28;20182;-85
2024/01/08 06:44:17;;;;;;;751.33;689.80;;;-1.20;99.90;;;;;;4993666;28;20088;-85
2024/01/08 06:46:43;;;;;;;744.03;684.35;;;-1.30;99.90;;;;;;5007146;28;20050;-85
2024/01/08 06:49:09;;;;;;;739.38;680.90;;;-1.00;99.90;;;;;;4996709;28;20050;-84
2024/01/08 06:51:40;;;;;;;593.92;550.97;;;-0.90;99.90;;;;;;4984933;28;20042;-84
2024/01/08 06:54:07;;;;;;;614.45;569.60;;;-1.00;99.90;;;;;;4989293;28;20048;-84
2024/01/08 06:56:32;;;;;;;590.90;548.38;;;-1.70;99.90;;;;;;4988913;28;20132;-85
2024/01/08 06:59:01;;;;;;;605.20;561.08;;;-0.70;99.90;;;;;;5020574;28;20738;-85
2024/01/08 07:01:28;;;;;;;568.60;527.53;;;-0.80;99.90;;;;;;4987820;28;20057;-85
2024/01/08 07:03:53;;;;;;;610.28;565.78;;;-0.70;99.90;;;;;;4987519;28;20038;-85
2024/01/08 07:06:19;;;;;;;485.33;451.55;;;-1.00;99.90;;;;;;5020206;28;20046;-84
2024/01/08 07:08:45;;;;;;;624.10;578.03;;;-1.70;99.90;;;;;;5010552;28;20618;-85
2024/01/08 07:11:22;;;;;;;500.77;465.48;;;-1.20;99.90;;;;;;4989778;28;20125;-84
2024/01/08 07:13:49;;;;;;;673.70;622.45;;;-1.60;99.90;;;;;;4984695;28;20054;-85
2024/01/08 07:16:16;;;;;;;501.10;465.98;;;-0.90;99.90;;;;;;4997834;28;20034;-84
2024/01/08 07:18:42;;;;;;;492.40;458.65;;;-1.50;99.90;;;;;;5003003;28;20045;-84
2024/01/08 07:21:09;;;;;;;637.85;590.50;;;-0.50;99.90;;;;;;5019570;28;20048;-84
2024/01/08 07:23:35;;;;;;;628.63;582.17;;;-1.50;99.90;;;;;;5007104;28;20046;-84
2024/01/08 07:26:01;;;;;;;471.63;439.42;;;-1.50;99.90;;;;;;5003606;28;20093;-84
2024/01/08 07:28:28;;;;;;;575.38;534.67;;;-1.50;99.90;;;;;;4981879;28;20074;-85
2024/01/08 07:30:54;;;;;;;607.30;563.53;;;-1.10;99.90;;;;;;4963930;28;20426;-85
2024/01/08 07:33:21;;;;;;;481.63;448.88;;;-0.20;99.90;;;;;;5001349;28;20033;-84
2024/01/08 07:35:47;;;;;;;480.45;448.00;;;-1.00;99.90;;;;;;4962444;28;20074;-85
2024/01/08 07:38:13;;;;;;;465.52;434.10;;;-0.50;99.90;;;;;;5000519;28;20042;-85
2024/01/08 07:40:39;;;;;;;452.48;421.95;;;-0.70;99.90;;;;;;4981800;28;20053;-85
2024/01/08 07:43:04;;;;;;;466.42;435.20;;;-0.60;99.90;;;;;;5016969;28;20543;-84
2024/01/08 07:45:30;;;;;;;596.65;553.75;;;0.00;99.90;;;;;;5035946;28;20046;-85
2024/01/08 07:47:57;;;;;;;569.22;528.30;;;-1.30;99.90;;;;;;4993253;28;20052;-85
2024/01/08 07:50:23;;;;;;;515.25;479.55;;;-1.30;99.90;;;;;;5016741;28;20138;-84
2024/01/08 07:52:48;;;;;;;616.47;571.95;;;-0.40;99.90;;;;;;4995632;28;20042;-84
2024/01/08 07:55:16;;;;;;;448.52;418.88;;;-0.50;99.90;;;;;;4996005;28;20057;-85
2024/01/08 07:57:42;;;;;;;494.48;460.83;;;-1.30;99.90;;;;;;4978932;28;20076;-84
2024/01/08 08:00:11;;;;;;;507.80;473.05;;;-0.30;99.90;;;;;;4996866;28;20034;-84
2024/01/08 08:02:38;;;;;;;443.90;414.75;;;-1.20;99.90;;;;;;4982150;28;20385;-84
2024/01/08 08:05:04;;;;;;;455.67;424.98;;;-1.20;99.90;;;;;;4998605;28;20052;-84
2024/01/08 08:07:30;;;;;;;430.90;402.60;;;-1.20;99.90;;;;;;4986597;28;20050;-84
2024/01/08 08:09:55;;;;;;;425.58;397.83;;;-1.10;99.90;;;;;;4981972;28;20088;-84
2024/01/08 08:12:21;;;;;;;409.27;382.45;;;0.10;99.90;;;;;;5035962;28;20042;-84
2024/01/08 08:14:48;;;;;;;478.40;446.55;;;-0.30;99.90;;;;;;5002103;28;20062;-84
2024/01/08 08:17:14;;;;;;;408.88;382.95;;;-1.10;99.90;;;;;;5019078;28;20124;-84
2024/01/08 08:19:44;;;;;;;370.30;347.15;;;-0.30;99.90;;;;;;4984130;28;20034;-83
2024/01/08 08:22:11;;;;;;;525.75;489.48;;;-0.70;99.90;;;;;;4983849;28;20064;-85
2024/01/08 08:24:39;;;;;;;350.70;328.92;;;-1.00;99.90;;;;;;4993817;28;20050;-85
2024/01/08 08:27:06;;;;;;;426.40;398.42;;;-1.00;99.90;;;;;;4987197;28;20038;-84
2024/01/08 08:29:32;;;;;;;489.73;456.00;;;-1.00;99.90;;;;;;4968135;28;20038;-84
2024/01/08 08:31:58;;;;;;;517.97;481.63;;;-0.10;99.90;;;;;;5016716;28;20050;-84
2024/01/08 08:34:23;;;;;;;399.67;373.52;;;-0.40;99.90;;;;;;5017185;28;20053;-85
2024/01/08 08:36:49;;;;;;;350.35;328.50;;;0.00;99.90;;;;;;5010901;28;20088;-84
2024/01/08 08:39:15;;;;;;;361.55;339.48;;;-1.00;99.90;;;;;;5029370;28;20045;-84
2024/01/08 08:41:43;;;;;;;498.30;465.30;;;-0.30;99.90;;;;;;5040032;28;20053;-84
2024/01/08 08:44:09;;;;;;;456.75;425.98;;;-0.80;99.90;;;;;;5001528;28;20046;-84
2024/01/08 08:46:35;;;;;;;405.50;379.63;;;-0.50;99.90;;;;;;5001873;28;20057;-83
2024/01/08 08:49:01;;;;;;;430.88;403.33;;;-0.90;99.90;;;;;;5010089;28;20077;-84
2024/01/08 08:51:27;;;;;;;343.17;321.83;;;0.10;99.90;;;;;;5035374;28;20516;-85
2024/01/08 08:53:52;;;;;;;388.95;364.48;;;0.20;99.90;;;;;;5026783;28;20456;-84
2024/01/08 08:56:18;;;;;;;348.95;327.42;;;-0.60;99.90;;;;;;4984523;28;20053;-83
2024/01/08 08:58:44;;;;;;;346.05;324.90;;;0.30;99.90;;;;;;4985523;28;20049;-83
2024/01/08 09:01:11;;;;;;;345.48;324.15;;;0.50;99.90;;;;;;5003015;28;20457;-83
2024/01/08 09:03:37;;;;;;;291.23;273.67;;;-0.10;99.90;;;;;;5000483;28;20196;-83
2024/01/08 09:06:03;;;;;;;400.08;374.15;;;0.30;99.90;;;;;;5034481;28;20221;-83
2024/01/08 09:08:28;;;;;;;384.35;360.50;;;-0.70;99.90;;;;;;4999881;28;20138;-83
2024/01/08 09:10:54;;;;;;;312.13;292.70;;;-0.60;99.90;;;;;;5020322;28;20049;-83
2024/01/08 09:13:20;;;;;;;264.25;248.18;;;-0.70;99.90;;;;;;5018444;28;20041;-83
2024/01/08 09:15:46;;;;;;;171.38;160.65;;;0.00;99.90;;;;;;4985378;28;20069;-83
2024/01/08 09:18:11;;;;;;;145.45;136.65;;;0.00;99.90;;;;;;4991611;28;20152;-83
2024/01/08 09:20:37;;;;;;;114.40;107.50;;;-0.60;99.90;;;;;;5003372;28;20045;-83
2024/01/08 09:23:03;;;;;;;110.43;103.78;;;0.30;99.90;;;;;;4985962;28;20051;-82
2024/01/08 09:25:30;;;;;;;99.25;93.22;;;0.70;99.90;;;;;;4982703;28;20130;-82
2024/01/08 09:27:56;;;;;;;75.75;70.80;;;0.60;99.90;;;;;;5012243;28;20137;-83
2024/01/08 09:30:21;;;;;;;118.30;111.15;;;0.10;99.90;;;;;;4996023;28;20041;-82
2024/01/08 09:32:47;;;;;;;73.22;68.90;;;1.00;99.90;;;;;;4997195;28;20548;-82
2024/01/08 09:35:14;;;;;;;58.25;54.42;;;-0.50;99.90;;;;;;4995184;28;20046;-83
2024/01/08 09:37:39;;;;;;;48.15;44.78;;;-0.50;99.90;;;;;;4971406;28;20343;-83
2024/01/08 09:40:06;;;;;;;68.75;64.43;;;-0.50;99.90;;;;;;5012952;28;20050;-84
2024/01/08 09:42:33;;;;;;;60.80;56.92;;;-0.40;99.90;;;;;;4982938;28;20038;-83
2024/01/08 09:45:03;;;;;;;35.33;32.90;;;0.70;99.90;;;;;;4987042;28;20073;-83
2024/01/08 09:47:30;;;;;;;24.95;23.33;;;-0.40;99.90;;;;;;4980222;28;20043;-83
2024/01/08 09:49:57;;;;;;;24.15;22.25;;;0.30;99.90;;;;;;4986293;28;20043;-83
2024/01/08 09:52:23;;;;;;;36.38;33.88;;;0.40;99.90;;;;;;4985326;28;20046;-84
2024/01/08 09:54:49;;;;;;;67.32;63.03;;;-0.40;99.90;;;;;;4999324;28;20095;-83
2024/01/08 09:57:15;;;;;;;32.67;30.48;;;-0.40;99.90;;;;;;4979008;28;20096;-81
2024/01/08 09:59:41;;;;;;;48.72;45.15;;;-0.40;99.90;;;;;;5024704;28;20038;-83
2024/01/08 10:02:15;;;;;;;30.45;27.73;;;0.80;99.90;;;;;;4997200;28;20083;-83
2024/01/08 10:04:41;;;;;;;76.68;71.43;;;0.40;99.90;;;;;;4996334;28;20066;-83
2024/01/08 10:07:08;;;;;;;30.92;28.73;;;-0.40;99.90;;;;;;4997160;28;20046;-83
2024/01/08 10:09:33;;;;;;;24.48;22.58;;;-0.40;99.90;;;;;;4978900;28;20493;-83
2024/01/08 10:11:59;;;;;;;26.75;24.77;;;0.70;99.90;;;;;;4971077;28;20038;-83
2024/01/08 10:14:26;;;;;;;35.42;33.15;;;0.60;99.90;;;;;;4999566;28;20510;-83
2024/01/08 10:16:54;;;;;;;56.83;52.78;;;0.70;99.90;;;;;;4986835;28;20060;-84
2024/01/08 10:19:23;;;;;;;72.47;67.55;;;0.90;99.90;;;;;;4978820;28;20046;-83
2024/01/08 10:22:07;;;;;;;74.78;70.22;;;-0.40;99.90;;;;;;4969873;28;20058;-83
2024/01/08 10:24:33;;;;;;;49.30;45.80;;;-0.40;99.90;;;;;;4978136;28;20172;-83
2024/01/08 10:26:59;;;;;;;109.90;103.03;;;0.20;99.90;;;;;;5037852;28;20034;-83
2024/01/08 10:29:25;;;;;;;62.22;58.25;;;0.30;99.90;;;;;;5035427;28;20053;-83
2024/01/08 10:31:50;;;;;;;71.72;67.32;;;-0.20;99.90;;;;;;4988483;28;20473;-83
2024/01/08 10:34:16;;;;;;;112.32;105.45;;;0.50;99.90;;;;;;4989921;28;20046;-83
2024/01/08 10:36:44;;;;;;;85.10;79.28;;;0.40;99.90;;;;;;5003306;28;20050;-83
2024/01/08 10:39:10;;;;;;;59.75;55.67;;;-0.10;99.90;;;;;;4989260;28;20042;-83
2024/01/08 10:41:36;;;;;;;76.07;71.43;;;0.10;99.90;;;;;;4987521;28;20049;-83
2024/01/08 10:44:03;;;;;;;58.00;54.30;;;-0.10;99.90;;;;;;4988241;28;20132;-83
2024/01/08 10:46:38;;;;;;;52.50;49.05;;;-0.10;99.90;;;;;;4994123;28;20086;-83
2024/01/08 10:49:10;;;;;;;47.25;44.20;;;-0.10;99.90;;;;;;4971525;28;20035;-83
2024/01/08 10:51:42;;;;;;;38.33;35.72;;;0.60;99.90;;;;;;4984629;28;20398;-83
2024/01/08 10:54:08;;;;;;;43.53;40.55;;;0.10;99.90;;;;;;4993924;28;20156;-83
2024/01/08 10:56:35;;;;;;;56.30;52.67;;;0.80;99.90;;;;;;4988189;28;20119;-83
2024/01/08 10:59:05;;;;;;;37.40;34.70;;;0.00;99.90;;;;;;5005566;28;20618;-83
2024/01/08 11:01:32;;;;;;;40.40;37.72;;;1.20;99.90;;;;;;4987732;28;20549;-82
2024/01/08 11:04:00;;;;;;;37.17;34.75;;;1.10;99.90;;;;;;4988298;28;20075;-83
2024/01/08 11:06:28;;;;;;;33.95;31.83;;;0.20;99.90;;;;;;4988328;28;20046;-82
2024/01/08 11:08:57;;;;;;;21.13;19.50;;;1.20;99.90;;;;;;4996023;28;20031;-82
2024/01/08 11:11:23;;;;;;;58.35;54.70;;;0.30;99.90;;;;;;5004270;28;20052;-83
2024/01/08 11:13:49;;;;;;;54.85;51.40;;;0.50;99.90;;;;;;5004411;28;20046;-82
2024/01/08 11:16:26;;;;;;;45.83;42.90;;;1.10;99.90;;;;;;4988457;28;20477;-82
2024/01/08 11:19:16;;;;;;;54.97;51.17;;;0.30;99.90;;;;;;5004449;28;20049;-82
2024/01/08 11:21:42;;;;;;;80.28;75.32;;;0.30;99.90;;;;;;5000829;28;20060;-82
2024/01/08 11:24:09;;;;;;;77.80;73.13;;;1.50;99.90;;;;;;5004672;28;20069;-82
2024/01/08 11:26:41;;;;;;;47.88;44.85;;;1.40;99.90;;;;;;5000255;28;20390;-83
2024/01/08 11:29:09;;;;;;;76.40;71.53;;;0.90;99.90;;;;;;4981406;28;20509;-82
2024/01/08 11:31:43;;;;;;;54.85;51.47;;;0.40;99.90;;;;;;4986494;28;20042;-83
2024/01/08 11:34:17;;;;;;;98.10;91.60;;;0.30;99.90;;;;;;4988054;28;20790;-82
2024/01/08 11:36:47;;;;;;;55.75;52.05;;;0.30;99.90;;;;;;4993769;28;20198;-82
2024/01/08 11:39:17;;;;;;;107.00;100.35;;;0.60;99.90;;;;;;4983819;28;20477;-82
2024/01/08 11:41:44;;;;;;;74.97;70.40;;;1.20;99.90;;;;;;5004511;28;20034;-82
2024/01/08 11:44:09;;;;;;;140.75;131.73;;;1.10;99.90;;;;;;5003522;28;20125;-82
2024/01/08 11:46:35;;;;;;;80.05;75.03;;;1.00;99.90;;;;;;5002167;28;20198;-83
2024/01/08 11:49:05;;;;;;;92.03;86.18;;;1.70;99.90;;;;;;4991887;28;20409;-83
2024/01/08 11:51:32;;;;;;;124.85;116.70;;;0.30;99.90;;;;;;5003281;28;20412;-82
2024/01/08 11:54:03;;;;;;;62.95;58.97;;;0.70;99.90;;;;;;5001998;28;20134;-83
2024/01/08 11:56:29;;;;;;;108.43;101.97;;;1.60;99.90;;;;;;5001891;28;20053;-83
2024/01/08 11:58:55;;;;;;;113.43;106.70;;;0.60;99.90;;;;;;5024779;28;20046;-83
2024/01/08 12:01:21;;;;;;;100.32;94.28;;;0.50;99.90;;;;;;5036895;28;20128;-84
2024/01/08 12:03:46;;;;;;;94.30;88.47;;;1.30;99.90;;;;;;4989610;28;20427;-83
2024/01/08 12:06:12;;;;;;;82.00;77.18;;;0.30;99.90;;;;;;4994534;28;20125;-83
2024/01/08 12:08:38;;;;;;;86.07;80.82;;;0.40;99.90;;;;;;4987910;28;20144;-83